ADDS METAR Data INFO
IDs: Format: Raw Decoded Include TAF

Data at: 2320 UTC 15 Jul 2018

KWWD 152255Z AUTO 19006KT 10SM CLR 27/22 A2998 RMK AO2 SLP155 T02670217
KWWD 152155Z AUTO 17005KT 10SM CLR 27/22 A2998 RMK AO2 SLP154 T02720217
KWWD 152055Z AUTO 18006KT 10SM CLR 28/22 A2999 RMK AO2 SLP156 60000 T02780217 56021
KWWD 151955Z AUTO 19005KT 10SM CLR 28/21 A3000 RMK AO2 RAB08E37 SLP161 P0000 T02830211
KWWD 151855Z AUTO 17009KT 10SM CLR 27/20 A3001 RMK AO2 SLP164 T02720200
KWWD 151755Z AUTO VRB04KT 10SM CLR 28/19 A3005 RMK AO2 SLP177 T02780194 10306 20244 58002
KWWD 151655Z AUTO 27007KT 10SM FEW100 29/19 A3005 RMK AO2 SLP178 T02890189
KWWD 151555Z AUTO 26008KT 10SM SCT120 29/19 A3006 RMK AO2 SLP179 T02890194
KWWD 151455Z AUTO VRB06KT 10SM CLR 27/19 A3005 RMK AO2 SLP179 T02720194 55000
KWWD 151355Z AUTO 24011KT 10SM CLR 27/19 A3004 RMK AO2 SLP173 T02670194
KWWD 151255Z AUTO 23011KT 10SM CLR 25/19 A3004 RMK AO2 SLP174 T02500194
KWWD 151155Z AUTO 24008KT 10SM CLR 24/21 A3005 RMK AO2 SLP179 T02440206 10244 20217 50000
KWWD 151117Z AUTO 24009KT 10SM FEW002 23/20 A3006 RMK AO2
KWWD 151055Z AUTO 23007KT 10SM CLR 23/20 A3005 RMK AO2 SLP179 T02330200
KWWD 151020Z AUTO 24006KT 7SM FEW003 22/20 A3005 RMK AO2
KWWD 150955Z AUTO 23007KT 10SM CLR 22/20 A3006 RMK AO2 SLP180 T02220200
KWWD 150855Z AUTO 23007KT 10SM CLR 22/20 A3005 RMK AO2 SLP178 T02170200 58010
KWWD 150755Z AUTO 23009KT 10SM CLR 22/19 A3006 RMK AO2 SLP182 T02220194
KWWD 150655Z AUTO 22008KT 10SM CLR 22/19 A3008 RMK AO2 SLP186 T02170189
KWWD 150555Z AUTO 22008KT 10SM CLR 22/18 A3008 RMK AO2 SLP189 T02170178 10256 20217 58002
KWWD 150455Z AUTO 22010KT 10SM CLR 22/17 A3009 RMK AO2 SLP192 T02220167 403000156
KWWD 150355Z AUTO 21007KT 10SM CLR 22/17 A3009 RMK AO2 SLP190 T02220172
KWWD 150255Z AUTO 21006KT 10SM CLR 23/17 A3009 RMK AO2 SLP191 T02280172 53007
KWWD 150155Z AUTO 20006KT 10SM CLR 23/17 A3008 RMK AO2 SLP189 T02280172 TSNO
KWWD 150055Z AUTO 20006KT 10SM CLR 23/17 A3007 RMK AO2 SLP183 T02330172
KWWD 142355Z AUTO 19007KT 10SM CLR 26/18 A3007 RMK AO2 SLP185 T02560178 10294 20256 57015
KWWD 142255Z AUTO 18007KT 10SM CLR 26/18 A3008 RMK AO2 SLP189 T02610183
KWWD 142155Z AUTO 18012KT 10SM CLR 27/18 A3010 RMK AO2 SLP196 T02720178
KWWD 142055Z AUTO 18011KT 10SM CLR 28/17 A3012 RMK AO2 SLP200 T02780172 57012
KWWD 141955Z AUTO 17011KT 10SM CLR 28/16 A3013 RMK AO2 SLP204 T02780161
KWWD 141855Z AUTO 17010KT 10SM CLR 28/17 A3014 RMK AO2 SLP207 T02780167
KWWD 141755Z AUTO 20009KT 10SM CLR 29/16 A3015 RMK AO2 SLP212 T02940156 10300 20222 58009
KWWD 141655Z AUTO VRB06KT 10SM CLR 28/14 A3017 RMK AO2 SLP217 T02830144
KWWD 141555Z AUTO 27006KT 10SM CLR 27/13 A3018 RMK AO2 SLP220 T02720128
KWWD 141455Z AUTO 29006KT 10SM CLR 26/18 A3018 RMK AO2 SLP221 T02560183 58003
KWWD 141355Z AUTO 24006KT 10SM CLR 25/14 A3018 RMK AO2 SLP222 T02500139
KWWD 141255Z AUTO 24006KT 10SM CLR 24/15 A3019 RMK AO2 SLP224 T02390150
KWWD 141155Z AUTO 10SM CLR 22/18 A3019 RMK AO2 SLP224 T02220178 10222 20156 55001 TSNO